CFG2369 VTSP-EDDF
Flight info
| Callsign | CFG2369 |
|---|---|
| Flight time | N/A |
| Altitude | 36000 |
| Route | SATVA1A SATVA L759 KKJ J1 MEMID L760 POSIG/N0476F360 L760 DPN G333 MERUN L750 RANAH A846 RUBAD B475 DOLOS B449 MAMED P130 BODKA/N0470F380 P130 REBLO UM11 ARLAT DCT CRM UL746 ODERO DCT OPT DCT IRLOX DCT BUDOP DCT UVERA DCT PEPIK DCT LIKSA DCT RAPET T170 VAGAB/N0377F240 T170 GAPLA T178 KERAX KERAX5A |
| Aircraft | A339/H-SDE1E2E3GHIJ1J4J7LM1OP2RVWXYZ/LB1D1 |
Departure
| Time | N/A |
|---|---|
| Airport | Phuket International Airport (VTSP) |
Arrival
| Time | 2026-05-04 23:28 |
|---|---|
| Airport | Frankfurt Main Airport (EDDF) |
| Time | Latitude | Longitude | Altitude | Speed | Heading |
|---|---|---|---|---|---|
| 2026-05-04 21:53 | 46.16981 | 22.85220 | 36124 ft | 457 kts | 302° |
| 2026-05-04 21:53 | 46.20019 | 22.77448 | 36122 ft | 457 kts | 301° |
| 2026-05-04 21:54 | 46.23115 | 22.69506 | 36124 ft | 457 kts | 301° |
| 2026-05-04 21:54 | 46.26236 | 22.61480 | 36124 ft | 457 kts | 301° |
| 2026-05-04 21:55 | 46.29327 | 22.53505 | 36116 ft | 456 kts | 301° |
| 2026-05-04 21:55 | 46.32435 | 22.45465 | 36112 ft | 456 kts | 301° |
| 2026-05-04 21:56 | 46.35513 | 22.37477 | 36105 ft | 456 kts | 301° |
| 2026-05-04 21:56 | 46.38607 | 22.29423 | 36102 ft | 456 kts | 301° |
| 2026-05-04 21:57 | 46.41672 | 22.21420 | 36101 ft | 456 kts | 301° |
| 2026-05-04 21:57 | 46.44754 | 22.13350 | 36094 ft | 456 kts | 301° |
| 2026-05-04 21:58 | 46.47811 | 22.05325 | 36091 ft | 456 kts | 301° |
| 2026-05-04 21:58 | 46.50877 | 21.97249 | 36092 ft | 456 kts | 301° |
| 2026-05-04 21:59 | 46.53911 | 21.89235 | 36088 ft | 456 kts | 301° |
| 2026-05-04 21:59 | 46.56974 | 21.81119 | 36087 ft | 456 kts | 301° |
| 2026-05-04 22:00 | 46.59995 | 21.73092 | 36079 ft | 456 kts | 301° |
| 2026-05-04 22:00 | 46.63037 | 21.64983 | 36081 ft | 456 kts | 301° |
| 2026-05-04 22:01 | 46.66078 | 21.56856 | 36077 ft | 455 kts | 301° |
| 2026-05-04 22:01 | 46.69154 | 21.48833 | 36079 ft | 453 kts | 305° |
| 2026-05-04 22:02 | 46.72798 | 21.41364 | 36076 ft | 453 kts | 307° |
| 2026-05-04 22:02 | 46.76475 | 21.33872 | 36075 ft | 454 kts | 307° |
| 2026-05-04 22:03 | 46.80134 | 21.26352 | 36070 ft | 454 kts | 307° |
| 2026-05-04 22:03 | 46.83763 | 21.18867 | 36068 ft | 454 kts | 307° |
| 2026-05-04 22:04 | 46.87415 | 21.11315 | 36070 ft | 455 kts | 307° |
| 2026-05-04 22:04 | 46.91062 | 21.03752 | 36071 ft | 455 kts | 306° |
| 2026-05-04 22:05 | 46.94711 | 20.96167 | 36068 ft | 455 kts | 306° |
| 2026-05-04 22:05 | 46.98351 | 20.88577 | 36065 ft | 455 kts | 306° |
| 2026-05-04 22:06 | 47.01968 | 20.81015 | 36063 ft | 455 kts | 306° |
| 2026-05-04 22:06 | 47.05593 | 20.73416 | 36065 ft | 454 kts | 306° |
| 2026-05-04 22:07 | 47.09214 | 20.65805 | 36056 ft | 454 kts | 306° |
| 2026-05-04 22:07 | 47.12805 | 20.58234 | 36056 ft | 454 kts | 306° |
| 2026-05-04 22:08 | 47.16412 | 20.50612 | 36053 ft | 453 kts | 306° |
| 2026-05-04 22:08 | 47.19994 | 20.43019 | 36048 ft | 453 kts | 306° |
| 2026-05-04 22:09 | 47.23694 | 20.35494 | 36048 ft | 453 kts | 307° |
| 2026-05-04 22:09 | 47.27446 | 20.28080 | 36050 ft | 453 kts | 307° |
| 2026-05-04 22:10 | 47.31195 | 20.20603 | 36051 ft | 453 kts | 307° |
| 2026-05-04 22:10 | 47.34929 | 20.13101 | 36049 ft | 453 kts | 307° |
| 2026-05-04 22:11 | 47.38633 | 20.05629 | 36050 ft | 453 kts | 307° |
| 2026-05-04 22:11 | 47.42350 | 19.98110 | 36050 ft | 453 kts | 307° |
| 2026-05-04 22:12 | 47.46047 | 19.90614 | 36049 ft | 453 kts | 307° |
| 2026-05-04 22:12 | 47.49755 | 19.83072 | 36054 ft | 453 kts | 307° |
| 2026-05-04 22:13 | 47.53464 | 19.75508 | 36049 ft | 453 kts | 307° |
| 2026-05-04 22:13 | 47.57144 | 19.67980 | 36051 ft | 453 kts | 307° |
| 2026-05-04 22:14 | 47.60836 | 19.60410 | 36049 ft | 453 kts | 307° |
| 2026-05-04 22:14 | 47.64527 | 19.52821 | 36054 ft | 453 kts | 307° |
| 2026-05-04 22:15 | 47.68192 | 19.45264 | 36051 ft | 453 kts | 306° |
| 2026-05-04 22:15 | 47.71884 | 19.37630 | 36052 ft | 453 kts | 306° |
| 2026-05-04 22:16 | 47.75542 | 19.30046 | 36052 ft | 453 kts | 306° |
| 2026-05-04 22:16 | 47.79213 | 19.22414 | 36051 ft | 453 kts | 306° |
| 2026-05-04 22:17 | 47.82859 | 19.14813 | 36046 ft | 453 kts | 306° |
| 2026-05-04 22:17 | 47.86518 | 19.07160 | 36046 ft | 453 kts | 306° |
| 2026-05-04 22:18 | 47.90180 | 18.99485 | 36042 ft | 453 kts | 306° |
| 2026-05-04 22:18 | 47.93805 | 18.91864 | 36041 ft | 453 kts | 306° |
| 2026-05-04 22:19 | 47.97447 | 18.84186 | 36044 ft | 453 kts | 306° |
| 2026-05-04 22:19 | 48.01067 | 18.76531 | 36038 ft | 452 kts | 306° |
| 2026-05-04 22:20 | 48.04696 | 18.68834 | 36034 ft | 452 kts | 306° |
| 2026-05-04 22:20 | 48.08297 | 18.61176 | 36029 ft | 452 kts | 306° |
| 2026-05-04 22:21 | 48.11910 | 18.53471 | 36022 ft | 452 kts | 306° |
| 2026-05-04 22:21 | 48.15500 | 18.45795 | 36022 ft | 452 kts | 306° |
| 2026-05-04 22:22 | 48.19091 | 18.38098 | 36016 ft | 451 kts | 305° |
| 2026-05-04 22:22 | 48.22692 | 18.30354 | 36011 ft | 451 kts | 305° |
| 2026-05-04 22:23 | 48.26284 | 18.22608 | 36007 ft | 451 kts | 305° |
| 2026-05-04 22:23 | 48.29857 | 18.14881 | 36008 ft | 451 kts | 305° |
| 2026-05-04 22:24 | 48.33439 | 18.07113 | 35999 ft | 452 kts | 305° |
| 2026-05-04 22:24 | 48.36994 | 17.99380 | 35994 ft | 452 kts | 305° |
| 2026-05-04 22:25 | 48.40572 | 17.91577 | 35994 ft | 452 kts | 304° |
| 2026-05-04 22:25 | 48.44138 | 17.83775 | 35990 ft | 452 kts | 304° |
| 2026-05-04 22:26 | 48.47685 | 17.75994 | 35990 ft | 452 kts | 304° |
| 2026-05-04 22:26 | 48.51241 | 17.68171 | 35989 ft | 452 kts | 304° |
| 2026-05-04 22:27 | 48.54802 | 17.60313 | 35988 ft | 452 kts | 304° |
| 2026-05-04 22:27 | 48.58326 | 17.52515 | 35985 ft | 453 kts | 304° |
| 2026-05-04 22:28 | 48.61882 | 17.44621 | 35980 ft | 453 kts | 304° |
| 2026-05-04 22:28 | 48.65412 | 17.36764 | 35972 ft | 453 kts | 304° |
| 2026-05-04 22:29 | 48.68957 | 17.28851 | 35964 ft | 453 kts | 304° |
| 2026-05-04 22:29 | 48.72457 | 17.21017 | 35952 ft | 454 kts | 304° |
| 2026-05-04 22:30 | 48.76014 | 17.13040 | 35950 ft | 454 kts | 304° |
| 2026-05-04 22:30 | 48.79359 | 17.04915 | 35949 ft | 453 kts | 298° |
| 2026-05-04 22:31 | 48.82299 | 16.96495 | 35944 ft | 453 kts | 298° |
| 2026-05-04 22:31 | 48.85283 | 16.88095 | 35940 ft | 454 kts | 298° |
| 2026-05-04 22:32 | 48.88272 | 16.79615 | 35942 ft | 454 kts | 297° |
| 2026-05-04 22:32 | 48.90741 | 16.72573 | 35942 ft | 454 kts | 297° |
| 2026-05-04 22:33 | 48.94192 | 16.62692 | 35943 ft | 454 kts | 297° |
| 2026-05-04 22:33 | 48.97140 | 16.54225 | 35944 ft | 454 kts | 297° |
| 2026-05-04 22:34 | 48.99595 | 16.47151 | 35940 ft | 454 kts | 297° |
| 2026-05-04 22:34 | 49.02545 | 16.38626 | 35954 ft | 454 kts | 297° |
| 2026-05-04 22:35 | 49.05471 | 16.30145 | 35958 ft | 454 kts | 297° |
| 2026-05-04 22:35 | 49.08408 | 16.21601 | 35966 ft | 454 kts | 297° |
| 2026-05-04 22:36 | 49.11323 | 16.13093 | 35966 ft | 454 kts | 297° |
| 2026-05-04 22:36 | 49.14247 | 16.04527 | 35967 ft | 454 kts | 297° |
| 2026-05-04 22:37 | 49.16987 | 15.95824 | 35960 ft | 454 kts | 294° |
| 2026-05-04 22:37 | 49.19626 | 15.87117 | 35954 ft | 454 kts | 294° |
| 2026-05-04 22:38 | 49.22292 | 15.78339 | 35949 ft | 454 kts | 294° |
| 2026-05-04 22:38 | 49.24940 | 15.69560 | 35941 ft | 454 kts | 294° |
| 2026-05-04 22:39 | 49.27572 | 15.60786 | 35931 ft | 454 kts | 294° |
| 2026-05-04 22:39 | 49.30193 | 15.52017 | 35937 ft | 455 kts | 294° |
| 2026-05-04 22:40 | 49.32830 | 15.43162 | 35930 ft | 455 kts | 294° |
| 2026-05-04 22:40 | 49.35440 | 15.34366 | 35932 ft | 455 kts | 294° |
| 2026-05-04 22:41 | 49.38054 | 15.25523 | 35932 ft | 455 kts | 293° |
| 2026-05-04 22:41 | 49.40649 | 15.16714 | 35934 ft | 455 kts | 293° |
| 2026-05-04 22:42 | 49.43253 | 15.07845 | 35931 ft | 455 kts | 293° |
| 2026-05-04 22:42 | 49.45790 | 14.99168 | 35930 ft | 455 kts | 293° |
| 2026-05-04 22:43 | 49.48365 | 14.90331 | 35931 ft | 455 kts | 293° |
| 2026-05-04 22:43 | 49.50952 | 14.81418 | 35931 ft | 455 kts | 292° |
| 2026-05-04 22:44 | 49.53531 | 14.72503 | 35931 ft | 455 kts | 292° |
| 2026-05-04 22:44 | 49.56088 | 14.63629 | 35931 ft | 455 kts | 292° |
| 2026-05-04 22:45 | 49.58653 | 14.54695 | 35937 ft | 455 kts | 292° |
| 2026-05-04 22:45 | 49.62480 | 14.41302 | 35943 ft | 455 kts | 292° |
| 2026-05-04 22:46 | 49.65030 | 14.32335 | 35946 ft | 456 kts | 292° |
| 2026-05-04 22:46 | 49.67561 | 14.23407 | 35951 ft | 456 kts | 292° |
| 2026-05-04 22:47 | 49.70088 | 14.14455 | 35953 ft | 456 kts | 291° |
| 2026-05-04 22:47 | 49.72622 | 14.05442 | 35956 ft | 456 kts | 291° |
| 2026-05-04 22:48 | 49.75132 | 13.96485 | 35956 ft | 456 kts | 291° |
| 2026-05-04 22:48 | 49.77649 | 13.87467 | 35961 ft | 456 kts | 291° |
| 2026-05-04 22:49 | 49.80164 | 13.78419 | 35960 ft | 456 kts | 291° |
| 2026-05-04 22:49 | 49.82655 | 13.69429 | 35953 ft | 456 kts | 291° |
| 2026-05-04 22:50 | 49.85138 | 13.60427 | 35949 ft | 456 kts | 291° |
| 2026-05-04 22:50 | 49.87625 | 13.51378 | 35948 ft | 455 kts | 291° |
| 2026-05-04 22:51 | 49.90094 | 13.42360 | 35943 ft | 455 kts | 291° |
| 2026-05-04 22:51 | 49.92566 | 13.33297 | 35947 ft | 455 kts | 290° |
| 2026-05-04 22:52 | 49.95026 | 13.24241 | 35946 ft | 455 kts | 290° |
| 2026-05-04 22:52 | 49.97463 | 13.15235 | 35948 ft | 454 kts | 290° |
| 2026-05-04 22:53 | 49.99910 | 13.06158 | 35955 ft | 454 kts | 290° |
| 2026-05-04 22:53 | 50.02335 | 12.97127 | 35956 ft | 455 kts | 290° |
| 2026-05-04 22:54 | 50.04774 | 12.88010 | 35961 ft | 455 kts | 290° |
| 2026-05-04 22:54 | 50.07197 | 12.78912 | 35966 ft | 455 kts | 290° |
| 2026-05-04 22:55 | 50.09606 | 12.69834 | 35957 ft | 455 kts | 290° |
| 2026-05-04 22:55 | 50.12022 | 12.60696 | 35955 ft | 455 kts | 289° |
| 2026-05-04 22:56 | 50.14428 | 12.51558 | 35949 ft | 456 kts | 289° |
| 2026-05-04 22:56 | 50.16825 | 12.42424 | 35949 ft | 456 kts | 289° |
| 2026-05-04 22:57 | 50.19190 | 12.33281 | 35944 ft | 456 kts | 287° |
| 2026-05-04 22:57 | 50.21303 | 12.23952 | 35955 ft | 456 kts | 287° |
| 2026-05-04 22:58 | 50.23458 | 12.14694 | 35953 ft | 456 kts | 287° |
| 2026-05-04 22:58 | 50.25607 | 12.05352 | 35969 ft | 456 kts | 287° |
| 2026-05-04 22:59 | 50.27731 | 11.96059 | 35965 ft | 456 kts | 287° |
| 2026-05-04 22:59 | 50.29882 | 11.86694 | 35972 ft | 455 kts | 286° |
| 2026-05-04 23:00 | 50.32002 | 11.77418 | 35965 ft | 455 kts | 286° |
| 2026-05-04 23:00 | 50.34124 | 11.68084 | 35966 ft | 455 kts | 286° |
| 2026-05-04 23:01 | 50.36240 | 11.58735 | 35957 ft | 454 kts | 286° |
| 2026-05-04 23:01 | 50.38332 | 11.49446 | 35964 ft | 454 kts | 286° |
| 2026-05-04 23:02 | 50.40432 | 11.40079 | 35966 ft | 454 kts | 285° |
| 2026-05-04 23:02 | 50.42509 | 11.30776 | 35948 ft | 454 kts | 285° |
| 2026-05-04 23:03 | 50.44586 | 11.21414 | 35947 ft | 453 kts | 285° |
| 2026-05-04 23:03 | 50.45614 | 11.16765 | 35751 ft | 448 kts | 285° |
| 2026-05-04 23:03 | 50.46624 | 11.12197 | 35238 ft | 447 kts | 285° |
| 2026-05-04 23:04 | 50.47637 | 11.07602 | 34720 ft | 444 kts | 284° |
| 2026-05-04 23:04 | 50.48644 | 11.03026 | 34222 ft | 440 kts | 284° |
| 2026-05-04 23:04 | 50.49639 | 10.98489 | 33621 ft | 437 kts | 284° |
| 2026-05-04 23:04 | 50.50610 | 10.94046 | 33001 ft | 433 kts | 284° |
| 2026-05-04 23:05 | 50.51585 | 10.89579 | 32500 ft | 428 kts | 284° |
| 2026-05-04 23:05 | 50.52549 | 10.85153 | 31951 ft | 424 kts | 284° |
| 2026-05-04 23:05 | 50.53496 | 10.80796 | 31412 ft | 420 kts | 284° |
| 2026-05-04 23:05 | 50.54447 | 10.76530 | 30887 ft | 416 kts | 285° |
| 2026-05-04 23:06 | 50.55422 | 10.72261 | 30370 ft | 413 kts | 285° |
| 2026-05-04 23:06 | 50.56393 | 10.68023 | 29798 ft | 409 kts | 285° |
| 2026-05-04 23:06 | 50.57347 | 10.63830 | 29211 ft | 405 kts | 285° |
| 2026-05-04 23:06 | 50.58290 | 10.59672 | 28604 ft | 401 kts | 285° |
| 2026-05-04 23:07 | 50.59222 | 10.55545 | 28026 ft | 398 kts | 285° |
| 2026-05-04 23:07 | 50.60147 | 10.51453 | 27450 ft | 394 kts | 285° |
| 2026-05-04 23:07 | 50.61060 | 10.47409 | 26858 ft | 391 kts | 285° |
| 2026-05-04 23:07 | 50.61953 | 10.43444 | 26294 ft | 388 kts | 285° |
| 2026-05-04 23:08 | 50.62853 | 10.39443 | 25705 ft | 384 kts | 285° |
| 2026-05-04 23:08 | 50.63742 | 10.35478 | 25141 ft | 381 kts | 285° |
| 2026-05-04 23:08 | 50.64559 | 10.31524 | 24533 ft | 375 kts | 278° |
| 2026-05-04 23:08 | 50.64755 | 10.27535 | 23950 ft | 366 kts | 262° |
| 2026-05-04 23:09 | 50.64181 | 10.23694 | 23447 ft | 356 kts | 245° |
| 2026-05-04 23:09 | 50.63043 | 10.20313 | 23047 ft | 344 kts | 238° |
| 2026-05-04 23:09 | 50.61817 | 10.17149 | 22781 ft | 331 kts | 237° |
| 2026-05-04 23:09 | 50.60615 | 10.14026 | 21958 ft | 335 kts | 238° |
| 2026-05-04 23:10 | 50.59453 | 10.10879 | 21500 ft | 328 kts | 239° |
| 2026-05-04 23:10 | 50.58352 | 10.07794 | 21249 ft | 320 kts | 239° |
| 2026-05-04 23:10 | 50.57286 | 10.04757 | 20871 ft | 319 kts | 240° |
| 2026-05-04 23:10 | 50.56225 | 10.01710 | 20467 ft | 314 kts | 240° |
| 2026-05-04 23:11 | 50.55187 | 9.98723 | 20070 ft | 307 kts | 240° |
| 2026-05-04 23:11 | 50.54225 | 9.95757 | 19687 ft | 302 kts | 245° |
| 2026-05-04 23:11 | 50.53538 | 9.92670 | 19314 ft | 297 kts | 252° |
| 2026-05-04 23:11 | 50.53013 | 9.89593 | 18943 ft | 292 kts | 252° |
| 2026-05-04 23:12 | 50.52479 | 9.86533 | 18574 ft | 291 kts | 252° |
| 2026-05-04 23:12 | 50.51897 | 9.83290 | 18169 ft | 322 kts | 252° |
| 2026-05-04 23:12 | 50.51270 | 9.79827 | 17720 ft | 333 kts | 252° |
| 2026-05-04 23:12 | 50.50634 | 9.76307 | 17302 ft | 333 kts | 252° |
| 2026-05-04 23:13 | 50.50010 | 9.72839 | 16885 ft | 327 kts | 252° |
| 2026-05-04 23:13 | 50.49426 | 9.69482 | 16491 ft | 317 kts | 253° |
| 2026-05-04 23:13 | 50.48865 | 9.66176 | 16086 ft | 308 kts | 253° |
| 2026-05-04 23:13 | 50.48319 | 9.62966 | 15712 ft | 299 kts | 253° |
| 2026-05-04 23:14 | 50.47786 | 9.59846 | 15342 ft | 290 kts | 252° |
| 2026-05-04 23:14 | 50.47172 | 9.56883 | 14974 ft | 280 kts | 246° |
| 2026-05-04 23:14 | 50.46400 | 9.54127 | 14632 ft | 272 kts | 244° |
| 2026-05-04 23:14 | 50.45634 | 9.51398 | 14281 ft | 291 kts | 244° |
| 2026-05-04 23:15 | 50.44783 | 9.48354 | 13887 ft | 313 kts | 245° |
| 2026-05-04 23:15 | 50.43908 | 9.45189 | 13468 ft | 318 kts | 245° |
| 2026-05-04 23:15 | 50.43037 | 9.42021 | 13056 ft | 313 kts | 245° |
| 2026-05-04 23:15 | 50.42188 | 9.38926 | 12670 ft | 302 kts | 245° |
| 2026-05-04 23:16 | 50.41369 | 9.35951 | 12280 ft | 291 kts | 244° |
| 2026-05-04 23:16 | 50.40592 | 9.33139 | 11936 ft | 279 kts | 244° |
| 2026-05-04 23:16 | 50.39835 | 9.30405 | 11575 ft | 268 kts | 244° |
| 2026-05-04 23:16 | 50.39104 | 9.27769 | 11224 ft | 258 kts | 244° |
| 2026-05-04 23:17 | 50.38396 | 9.25221 | 10901 ft | 255 kts | 244° |
| 2026-05-04 23:17 | 50.37660 | 9.22695 | 10624 ft | 252 kts | 238° |
| 2026-05-04 23:17 | 50.36502 | 9.20704 | 10178 ft | 246 kts | 217° |
| 2026-05-04 23:17 | 50.35088 | 9.19224 | 9639 ft | 243 kts | 212° |
| 2026-05-04 23:18 | 50.33634 | 9.17860 | 8994 ft | 243 kts | 212° |
| 2026-05-04 23:18 | 50.32195 | 9.16482 | 8438 ft | 240 kts | 213° |
| 2026-05-04 23:18 | 50.30801 | 9.15079 | 8048 ft | 244 kts | 214° |
| 2026-05-04 23:18 | 50.29388 | 9.13608 | 7681 ft | 242 kts | 214° |
| 2026-05-04 23:19 | 50.28000 | 9.12135 | 7313 ft | 243 kts | 215° |
| 2026-05-04 23:19 | 50.26608 | 9.10645 | 6950 ft | 239 kts | 215° |
| 2026-05-04 23:19 | 50.25237 | 9.09181 | 6577 ft | 241 kts | 215° |
| 2026-05-04 23:19 | 50.23853 | 9.07704 | 6202 ft | 239 kts | 215° |
| 2026-05-04 23:20 | 50.22483 | 9.06243 | 5930 ft | 241 kts | 215° |
| 2026-05-04 23:20 | 50.21114 | 9.04769 | 5671 ft | 240 kts | 216° |
| 2026-05-04 23:20 | 50.19742 | 9.03300 | 5410 ft | 241 kts | 216° |
| 2026-05-04 23:20 | 50.18354 | 9.01817 | 5173 ft | 241 kts | 216° |
| 2026-05-04 23:21 | 50.16997 | 9.00366 | 4979 ft | 228 kts | 216° |
| 2026-05-04 23:21 | 50.15726 | 8.99011 | 4809 ft | 214 kts | 216° |
| 2026-05-04 23:21 | 50.14514 | 8.97725 | 4635 ft | 210 kts | 216° |
| 2026-05-04 23:21 | 50.13390 | 8.96309 | 4556 ft | 207 kts | 228° |
| 2026-05-04 23:22 | 50.12615 | 8.94526 | 4488 ft | 192 kts | 242° |
| 2026-05-04 23:22 | 50.12098 | 8.92679 | 4384 ft | 181 kts | 248° |
| 2026-05-04 23:22 | 50.11672 | 8.90863 | 4340 ft | 179 kts | 249° |
| 2026-05-04 23:22 | 50.11387 | 8.89653 | 4293 ft | 179 kts | 249° |
| 2026-05-04 23:23 | 50.10954 | 8.87842 | 4212 ft | 178 kts | 249° |
| 2026-05-04 23:23 | 50.10520 | 8.86019 | 4004 ft | 178 kts | 249° |
| 2026-05-04 23:23 | 50.10095 | 8.84231 | 3786 ft | 174 kts | 249° |
| 2026-05-04 23:23 | 50.09679 | 8.82486 | 3550 ft | 170 kts | 249° |
| 2026-05-04 23:24 | 50.09272 | 8.80773 | 3328 ft | 167 kts | 250° |
| 2026-05-04 23:24 | 50.08877 | 8.79114 | 3116 ft | 164 kts | 250° |
| 2026-05-04 23:24 | 50.08485 | 8.77466 | 2893 ft | 161 kts | 250° |
| 2026-05-04 23:24 | 50.08099 | 8.75840 | 2684 ft | 159 kts | 249° |
| 2026-05-04 23:25 | 50.07716 | 8.74233 | 2474 ft | 158 kts | 249° |
| 2026-05-04 23:25 | 50.07332 | 8.72622 | 2259 ft | 159 kts | 249° |
| 2026-05-04 23:25 | 50.06951 | 8.71017 | 2047 ft | 154 kts | 249° |
| 2026-05-04 23:25 | 50.06593 | 8.69511 | 1846 ft | 141 kts | 249° |
| 2026-05-04 23:26 | 50.06260 | 8.68120 | 1671 ft | 142 kts | 249° |
| 2026-05-04 23:26 | 50.05925 | 8.66713 | 1469 ft | 136 kts | 249° |
| 2026-05-04 23:26 | 50.05585 | 8.65284 | 1281 ft | 138 kts | 249° |
| 2026-05-04 23:26 | 50.05245 | 8.63862 | 1100 ft | 147 kts | 249° |
| 2026-05-04 23:27 | 50.04902 | 8.62420 | 911 ft | 141 kts | 250° |
| 2026-05-04 23:27 | 50.04550 | 8.60938 | 724 ft | 145 kts | 250° |
| 2026-05-04 23:27 | 50.04198 | 8.59462 | 534 ft | 152 kts | 251° |
| 2026-05-04 23:27 | 50.03849 | 8.57992 | 376 ft | 143 kts | 250° |
| 2026-05-04 23:28 | 50.03572 | 8.56831 | 366 ft | 85 kts | 250° |
| 2026-05-04 23:28 | 50.03444 | 8.56296 | 369 ft | 28 kts | 252° |
| 2026-05-04 23:28 | 50.03443 | 8.56009 | 367 ft | 26 kts | 280° |
| 2026-05-04 23:28 | 50.03466 | 8.55802 | 365 ft | 13 kts | 278° |
| 2026-05-04 23:29 | 50.03492 | 8.55706 | 364 ft | 8 kts | 325° |
| 2026-05-04 23:29 | 50.03548 | 8.55736 | 367 ft | 11 kts | 44° |
| 2026-05-04 23:29 | 50.03585 | 8.55860 | 366 ft | 13 kts | 69° |
| 2026-05-04 23:29 | 50.03615 | 8.55984 | 368 ft | 12 kts | 69° |
| 2026-05-04 23:30 | 50.03647 | 8.56117 | 369 ft | 14 kts | 70° |
| 2026-05-04 23:30 | 50.03682 | 8.56265 | 370 ft | 15 kts | 70° |
| 2026-05-04 23:30 | 50.03718 | 8.56421 | 367 ft | 16 kts | 70° |
| 2026-05-04 23:30 | 50.03760 | 8.56597 | 368 ft | 18 kts | 69° |
| 2026-05-04 23:31 | 50.03806 | 8.56782 | 368 ft | 19 kts | 69° |
| 2026-05-04 23:31 | 50.03853 | 8.56979 | 371 ft | 19 kts | 70° |
| 2026-05-04 23:31 | 50.03898 | 8.57171 | 370 ft | 19 kts | 70° |
| 2026-05-04 23:31 | 50.03943 | 8.57357 | 373 ft | 18 kts | 69° |
| 2026-05-04 23:32 | 50.03988 | 8.57542 | 372 ft | 19 kts | 69° |
| 2026-05-04 23:32 | 50.04037 | 8.57749 | 374 ft | 21 kts | 69° |
| 2026-05-04 23:32 | 50.04087 | 8.57957 | 371 ft | 16 kts | 70° |
| 2026-05-04 23:32 | 50.04126 | 8.58106 | 377 ft | 13 kts | 56° |
| 2026-05-04 23:33 | 50.04207 | 8.58184 | 375 ft | 15 kts | 25° |
| 2026-05-04 23:33 | 50.04308 | 8.58192 | 377 ft | 16 kts | 341° |
| 2026-05-04 23:33 | 50.04408 | 8.58137 | 377 ft | 15 kts | 339° |
| 2026-05-04 23:33 | 50.04503 | 8.58078 | 377 ft | 15 kts | 339° |
| 2026-05-04 23:34 | 50.04606 | 8.58019 | 378 ft | 16 kts | 340° |
| 2026-05-04 23:34 | 50.04715 | 8.57958 | 378 ft | 18 kts | 339° |
| 2026-05-04 23:34 | 50.04815 | 8.57895 | 376 ft | 13 kts | 331° |
| 2026-05-04 23:34 | 50.04855 | 8.57808 | 376 ft | 9 kts | 292° |
| 2026-05-04 23:35 | 50.04838 | 8.57753 | 378 ft | 3 kts | 222° |
| 2026-05-04 23:35 | 50.04821 | 8.57729 | 379 ft | 4 kts | 224° |
| 2026-05-04 23:35 | 50.04806 | 8.57699 | 378 ft | 0 kts | 232° |